Diamond Valley, Utah
Current Conditions -  °F | °C
As of 10:35 PM on Wednesday 22 Oct 2014 (Local Time) from KSGU Reporting Station
Clear Clear  
Wind Chill: 64°   Ceiling: Unl
Heat Index: 64°   Visibility: 10mi
Dew Point: 32°   Wind: 0mph
Humidity: 30%   Direction: NA
Pressure: 30.1"   Gusts: NA
Location:  37.1317°N, 113.795°W
Report Text: KSGU 230435Z AUTO 00000KT 10SM CLR 18/00 A3010 RMK AO1
Loading
Personal Weather Stations






























Interactive Weather Map
Tropical Storm Tracking
New forecast layout! Learn more

10-Day Weather Forecast

Advertisements
Track Severe Weather on mobile